Time;durP1;ratioP1;P1;durP2;ratioP2;P2;SDS_P1;SDS_P2;PMS_P1;PMS_P2;Temp;Humidity;BMP_temperature;BMP_pressure;BME280_temperature;BME280_humidity;BME280_pressure;Samples;Min_cycle;Max_cycle;Signal;HPM_P1;HPM_P2
2023/03/11 00:01:43;;;;;;;6.53;0.82;;;0.30;99.90;;;;;;5088288;28;20041;-82
2023/03/11 00:04:10;;;;;;;3.03;0.70;;;1.00;99.90;;;;;;5071325;28;20128;-82
2023/03/11 00:06:37;;;;;;;11.13;1.13;;;0.20;99.90;;;;;;5087515;28;20413;-82
2023/03/11 00:09:04;;;;;;;2.60;0.70;;;0.40;99.90;;;;;;5070744;28;20047;-81
2023/03/11 00:11:31;;;;;;;6.10;1.10;;;0.30;99.90;;;;;;5088147;28;20389;-81
2023/03/11 00:13:58;;;;;;;3.63;1.25;;;0.30;99.90;;;;;;5087325;28;20132;-82
2023/03/11 00:16:25;;;;;;;2.70;0.90;;;0.90;99.90;;;;;;5087621;28;20132;-82
2023/03/11 00:18:52;;;;;;;8.40;1.10;;;0.40;99.90;;;;;;5087718;28;20144;-81
2023/03/11 00:21:19;;;;;;;9.93;1.52;;;0.50;99.90;;;;;;5070978;28;20048;-82
2023/03/11 00:23:46;;;;;;;1.90;0.70;;;1.10;99.90;;;;;;5070852;28;20558;-82
2023/03/11 00:26:13;;;;;;;4.20;0.63;;;0.40;99.90;;;;;;5070213;28;20123;-81
2023/03/11 00:28:40;;;;;;;9.85;1.20;;;0.40;99.90;;;;;;5087366;28;20036;-82
2023/03/11 00:31:06;;;;;;;2.80;0.88;;;0.40;99.90;;;;;;5087458;28;20039;-82
2023/03/11 00:33:33;;;;;;;6.00;1.10;;;0.30;99.90;;;;;;5076906;28;20037;-82
2023/03/11 00:36:00;;;;;;;3.88;1.25;;;0.30;99.90;;;;;;5103389;28;20037;-82
2023/03/11 00:38:26;;;;;;;6.38;1.05;;;0.00;99.90;;;;;;5087142;28;20512;-82
2023/03/11 00:40:53;;;;;;;4.63;1.50;;;0.30;99.90;;;;;;5087027;28;20095;-82
2023/03/11 00:43:20;;;;;;;5.15;0.85;;;0.70;99.90;;;;;;5087011;28;20127;-82
2023/03/11 00:45:47;;;;;;;2.60;0.80;;;0.10;99.90;;;;;;5086801;28;20120;-81
2023/03/11 00:48:14;;;;;;;7.15;0.98;;;0.20;99.90;;;;;;5086554;28;20056;-82
2023/03/11 00:50:42;;;;;;;2.67;0.90;;;0.00;99.90;;;;;;5103401;28;20136;-82
2023/03/11 00:53:09;;;;;;;5.50;1.10;;;1.00;99.90;;;;;;5069963;28;20041;-82
2023/03/11 00:55:36;;;;;;;8.55;0.90;;;0.50;99.90;;;;;;5086819;28;20047;-82
2023/03/11 00:58:05;;;;;;;3.13;0.80;;;0.00;99.90;;;;;;5070102;28;20137;-82
2023/03/11 01:00:33;;;;;;;8.85;1.42;;;0.50;99.90;;;;;;5103711;28;20052;-82
2023/03/11 01:03:00;;;;;;;7.13;0.95;;;-0.10;99.90;;;;;;5103092;28;20091;-82
2023/03/11 01:05:29;;;;;;;2.00;0.90;;;0.20;99.90;;;;;;5086730;28;20477;-82
2023/03/11 01:07:56;;;;;;;4.07;0.85;;;-0.10;99.90;;;;;;5102962;28;20047;-82
2023/03/11 01:10:27;;;;;;;3.00;0.82;;;0.80;99.90;;;;;;5086452;28;20037;-82
2023/03/11 01:12:54;;;;;;;7.15;1.23;;;-0.10;99.90;;;;;;5070137;28;20115;-81
2023/03/11 01:15:25;;;;;;;10.00;1.73;;;0.60;99.90;;;;;;5053430;28;20436;-82
2023/03/11 01:17:52;;;;;;;9.38;1.30;;;-0.20;99.90;;;;;;5086712;28;20186;-81
2023/03/11 01:20:19;;;;;;;13.77;1.75;;;-0.20;99.90;;;;;;5053119;28;20123;-81
2023/03/11 01:22:46;;;;;;;3.03;0.98;;;-0.20;99.90;;;;;;5069713;28;20094;-81
2023/03/11 01:25:16;;;;;;;4.65;1.17;;;-0.20;99.90;;;;;;5069418;28;20124;-81
2023/03/11 01:27:44;;;;;;;5.32;1.10;;;-0.20;99.90;;;;;;5069668;28;20033;-81
2023/03/11 01:30:15;;;;;;;5.70;0.93;;;-0.10;99.90;;;;;;5069273;28;20082;-81
2023/03/11 01:32:42;;;;;;;4.05;0.68;;;-0.20;99.90;;;;;;5086443;28;20037;-81
2023/03/11 01:35:12;;;;;;;4.88;1.13;;;1.10;99.90;;;;;;5069502;28;20044;-81
2023/03/11 01:37:38;;;;;;;3.40;0.70;;;0.80;99.90;;;;;;5085469;28;20043;-81
2023/03/11 01:40:08;;;;;;;3.95;0.50;;;-0.10;99.90;;;;;;5085963;28;20128;-81
2023/03/11 01:42:34;;;;;;;2.03;0.52;;;-0.10;99.90;;;;;;5085731;28;20408;-81
2023/03/11 01:45:01;;;;;;;0.85;0.57;;;-0.10;99.90;;;;;;5085737;28;20036;-81
2023/03/11 01:47:35;;;;;;;3.17;0.90;;;0.00;99.90;;;;;;5069107;28;20051;-82
2023/03/11 01:50:06;;;;;;;4.15;0.85;;;0.00;99.90;;;;;;5069069;28;20123;-81
2023/03/11 01:52:34;;;;;;;0.90;0.60;;;0.00;99.90;;;;;;5103146;28;20132;-81
2023/03/11 01:55:00;;;;;;;2.55;0.80;;;0.50;99.90;;;;;;5085601;28;20718;-82
2023/03/11 01:57:27;;;;;;;2.38;1.10;;;0.00;99.90;;;;;;5069092;28;20127;-81
2023/03/11 01:59:57;;;;;;;4.57;0.57;;;0.10;99.90;;;;;;5085963;28;20047;-82
2023/03/11 02:02:51;;;;;;;1.58;0.52;;;0.00;99.90;;;;;;5085559;28;20090;-81
2023/03/11 02:05:20;;;;;;;1.52;0.60;;;0.40;99.90;;;;;;5070038;28;20048;-81
2023/03/11 02:07:49;;;;;;;0.70;0.60;;;0.00;99.90;;;;;;5086240;28;20037;-81
2023/03/11 02:10:16;;;;;;;4.10;0.70;;;0.00;99.90;;;;;;5102427;28;20029;-82
2023/03/11 02:12:46;;;;;;;11.35;1.00;;;0.00;99.90;;;;;;5085534;28;20041;-81
2023/03/11 02:15:13;;;;;;;7.50;0.80;;;0.00;99.90;;;;;;5068916;28;20448;-81
2023/03/11 02:17:41;;;;;;;2.55;0.63;;;-0.10;99.90;;;;;;5102627;28;20091;-81
2023/03/11 02:20:35;;;;;;;2.05;0.50;;;-0.10;99.90;;;;;;5068905;28;20593;-81
2023/03/11 02:23:02;;;;;;;4.03;0.93;;;-0.20;99.90;;;;;;5068956;28;20124;-81
2023/03/11 02:25:41;;;;;;;7.88;0.85;;;-0.20;99.90;;;;;;5068512;28;20881;-81
2023/03/11 02:28:12;;;;;;;4.72;0.65;;;-0.20;99.90;;;;;;5102415;28;20225;-81
2023/03/11 02:30:41;;;;;;;4.47;0.93;;;-0.20;99.90;;;;;;5085385;28;20037;-81
2023/03/11 02:33:09;;;;;;;1.83;0.52;;;0.50;99.90;;;;;;5085032;28;20033;-81
2023/03/11 02:35:36;;;;;;;4.00;0.65;;;-0.30;99.90;;;;;;5085917;28;20486;-81
2023/03/11 02:38:03;;;;;;;3.67;0.70;;;-0.20;99.90;;;;;;5085402;28;20049;-81
2023/03/11 02:40:34;;;;;;;1.17;0.60;;;-0.30;99.90;;;;;;5068175;28;20494;-82
2023/03/11 02:43:04;;;;;;;4.07;0.77;;;0.10;99.90;;;;;;5102143;28;20048;-81
2023/03/11 02:45:32;;;;;;;1.27;0.65;;;-0.30;99.90;;;;;;5068496;28;20045;-82
2023/03/11 02:47:59;;;;;;;2.83;0.80;;;-0.30;99.90;;;;;;5085275;28;20057;-81
2023/03/11 02:50:28;;;;;;;2.30;0.80;;;-0.40;99.90;;;;;;5088107;28;20554;-81
2023/03/11 02:52:55;;;;;;;4.00;0.95;;;-0.20;99.90;;;;;;5089541;28;20033;-81
2023/03/11 02:55:22;;;;;;;8.40;0.70;;;-0.40;99.90;;;;;;5072507;28;20075;-81
2023/03/11 02:57:48;;;;;;;2.35;0.88;;;-0.50;99.90;;;;;;5105981;28;20103;-82
2023/03/11 03:00:16;;;;;;;2.40;0.55;;;-0.50;99.90;;;;;;5072369;28;20417;-82
2023/03/11 03:02:44;;;;;;;5.88;0.95;;;-0.50;99.90;;;;;;5089128;28;20049;-82
2023/03/11 03:05:12;;;;;;;5.22;0.80;;;-0.50;99.90;;;;;;5071777;28;20048;-82
2023/03/11 03:07:39;;;;;;;1.67;0.70;;;-0.60;99.90;;;;;;5106043;28;20033;-82
2023/03/11 03:10:06;;;;;;;2.90;0.85;;;-0.60;99.90;;;;;;5089038;28;20036;-82
2023/03/11 03:12:33;;;;;;;8.68;1.05;;;-0.70;99.90;;;;;;5088741;28;20048;-82
2023/03/11 03:14:59;;;;;;;5.30;1.17;;;-0.40;99.90;;;;;;5072479;28;20115;-82
2023/03/11 03:17:26;;;;;;;3.00;0.80;;;0.10;99.90;;;;;;5088626;28;20037;-82
2023/03/11 03:19:53;;;;;;;9.95;1.00;;;-0.80;99.90;;;;;;5089066;28;20041;-82
2023/03/11 03:22:19;;;;;;;13.35;1.00;;;-0.80;99.90;;;;;;5088711;28;20033;-82
2023/03/11 03:24:46;;;;;;;1.67;0.68;;;-0.30;99.90;;;;;;5072040;28;20048;-82
2023/03/11 03:27:13;;;;;;;3.53;0.75;;;-0.90;99.90;;;;;;5072198;28;20033;-82
2023/03/11 03:29:39;;;;;;;6.30;1.38;;;-0.70;99.90;;;;;;5071990;28;20037;-82
2023/03/11 03:32:06;;;;;;;0.93;0.60;;;-0.50;99.90;;;;;;5088839;28;20094;-81
2023/03/11 03:34:33;;;;;;;4.68;1.05;;;-1.00;99.90;;;;;;5088721;28;20082;-82
2023/03/11 03:37:00;;;;;;;1.15;0.70;;;0.10;99.90;;;;;;5088676;28;20041;-82
2023/03/11 03:39:26;;;;;;;3.63;0.60;;;-1.00;99.90;;;;;;5071488;28;20106;-82
2023/03/11 03:41:53;;;;;;;1.55;0.63;;;-1.00;99.90;;;;;;5088403;28;20044;-82
2023/03/11 03:44:20;;;;;;;3.83;0.82;;;-1.10;99.90;;;;;;5087663;28;20049;-82
2023/03/11 03:46:47;;;;;;;2.60;0.80;;;-1.10;99.90;;;;;;5088260;28;20566;-82
2023/03/11 03:49:13;;;;;;;2.78;0.70;;;-0.60;99.90;;;;;;5104725;28;20080;-82
2023/03/11 03:51:40;;;;;;;2.72;0.80;;;-1.10;99.90;;;;;;5121379;28;20052;-82
2023/03/11 03:54:07;;;;;;;1.30;0.57;;;-1.10;99.90;;;;;;5071247;28;20089;-82
2023/03/11 03:56:33;;;;;;;2.58;0.70;;;-1.10;99.90;;;;;;5087989;28;20455;-82
2023/03/11 03:59:00;;;;;;;2.88;0.80;;;-1.10;99.90;;;;;;5071371;28;20509;-82
2023/03/11 04:01:27;;;;;;;4.65;1.17;;;-1.10;99.90;;;;;;5086547;28;20041;-82
2023/03/11 04:03:53;;;;;;;2.20;0.80;;;-1.10;99.90;;;;;;5087814;28;20040;-82
2023/03/11 04:06:23;;;;;;;5.82;0.88;;;-1.10;99.90;;;;;;5104410;28;20084;-82
2023/03/11 04:08:52;;;;;;;4.97;1.30;;;-1.20;99.90;;;;;;5071818;28;20124;-82
2023/03/11 04:11:19;;;;;;;7.07;1.95;;;-1.20;99.90;;;;;;5088211;28;20048;-82
2023/03/11 04:13:46;;;;;;;4.00;1.50;;;-1.20;99.90;;;;;;5121415;28;20055;-82
2023/03/11 04:16:17;;;;;;;5.72;1.00;;;-1.20;99.90;;;;;;5104419;28;20118;-82
2023/03/11 04:18:44;;;;;;;4.15;0.90;;;-1.30;99.90;;;;;;5120856;28;20051;-82
2023/03/11 04:21:10;;;;;;;4.35;1.00;;;-1.30;99.90;;;;;;5087816;28;20041;-82
2023/03/11 04:23:37;;;;;;;1.90;0.90;;;-1.30;99.90;;;;;;5070900;28;20032;-82
2023/03/11 04:26:04;;;;;;;3.25;1.10;;;-1.30;99.90;;;;;;5070851;28;20103;-82
2023/03/11 04:28:31;;;;;;;1.75;0.80;;;-1.40;99.90;;;;;;5087191;28;20037;-82
2023/03/11 04:30:58;;;;;;;3.03;1.10;;;-1.40;99.90;;;;;;5070900;28;20047;-82
2023/03/11 04:33:24;;;;;;;6.38;1.55;;;-1.40;99.90;;;;;;5087463;28;20153;-82
2023/03/11 04:35:51;;;;;;;2.38;1.05;;;-1.10;99.90;;;;;;5103868;28;20075;-82
2023/03/11 04:38:18;;;;;;;3.70;0.90;;;-1.50;99.90;;;;;;5087446;28;20071;-82
2023/03/11 04:40:44;;;;;;;3.03;0.93;;;-0.80;99.90;;;;;;5070466;28;20049;-82
2023/03/11 04:43:11;;;;;;;4.72;1.00;;;-1.50;99.90;;;;;;5086835;28;20044;-82
2023/03/11 04:45:39;;;;;;;3.95;0.80;;;-1.50;99.90;;;;;;5086138;28;20493;-82
2023/03/11 04:48:07;;;;;;;1.35;0.68;;;-1.50;99.90;;;;;;5053330;28;20488;-82
2023/03/11 04:50:33;;;;;;;1.33;0.57;;;-1.50;99.90;;;;;;5037237;28;20040;-82
2023/03/11 04:53:00;;;;;;;2.55;0.88;;;-1.60;99.90;;;;;;5086762;28;20413;-82
2023/03/11 04:55:27;;;;;;;1.30;0.73;;;-1.60;99.90;;;;;;5086874;28;20040;-82
2023/03/11 04:57:53;;;;;;;3.30;1.00;;;-1.00;99.90;;;;;;5087002;28;20045;-82
2023/03/11 05:00:23;;;;;;;1.35;0.70;;;-0.90;99.90;;;;;;5070327;28;20042;-82
2023/03/11 05:02:50;;;;;;;3.78;1.15;;;-1.70;99.90;;;;;;5103355;28;20040;-82
2023/03/11 05:05:18;;;;;;;1.58;0.70;;;-1.70;99.90;;;;;;5069673;28;20044;-82
2023/03/11 05:07:45;;;;;;;2.88;0.82;;;-1.70;99.90;;;;;;5086704;28;20036;-82
2023/03/11 05:10:12;;;;;;;1.30;0.73;;;-1.80;99.90;;;;;;5103299;28;20029;-82
2023/03/11 05:12:39;;;;;;;7.28;1.00;;;-1.20;99.90;;;;;;5086010;28;20455;-82
2023/03/11 05:15:06;;;;;;;3.75;0.90;;;-1.80;99.90;;;;;;5069658;28;20037;-82
2023/03/11 05:17:33;;;;;;;1.95;0.82;;;-1.90;99.90;;;;;;5086219;28;20559;-82
2023/03/11 05:20:00;;;;;;;3.22;1.08;;;-1.90;99.90;;;;;;5069808;28;20045;-82
2023/03/11 05:22:26;;;;;;;3.17;0.88;;;-1.90;99.90;;;;;;5070180;28;20044;-82
2023/03/11 05:24:53;;;;;;;1.88;0.57;;;-1.90;99.90;;;;;;5102983;28;20044;-82
2023/03/11 05:27:20;;;;;;;6.45;0.80;;;-2.00;99.90;;;;;;5069628;28;20136;-82
2023/03/11 05:29:46;;;;;;;2.83;0.80;;;-1.30;99.90;;;;;;5069047;28;20110;-82
2023/03/11 05:32:13;;;;;;;3.17;0.90;;;-2.00;99.90;;;;;;5102972;28;20045;-81
2023/03/11 05:34:40;;;;;;;2.50;1.08;;;-2.00;99.90;;;;;;5102501;28;20102;-82
2023/03/11 05:37:07;;;;;;;2.00;0.80;;;-2.00;99.90;;;;;;5085779;28;20049;-81
2023/03/11 05:39:36;;;;;;;0.55;0.47;;;-2.10;99.90;;;;;;5102536;28;20386;-81
2023/03/11 05:42:04;;;;;;;3.15;0.90;;;-1.90;99.90;;;;;;5086141;28;20040;-81
2023/03/11 05:44:31;;;;;;;7.75;1.00;;;-2.10;99.90;;;;;;5086055;28;20528;-82
2023/03/11 05:46:58;;;;;;;1.75;0.80;;;-1.60;99.90;;;;;;5069130;28;20415;-82
2023/03/11 05:49:25;;;;;;;3.13;1.67;;;-1.30;99.90;;;;;;5085749;28;20060;-81
2023/03/11 05:51:55;;;;;;;3.22;1.38;;;-1.40;99.90;;;;;;5085926;28;20044;-81
2023/03/11 05:54:21;;;;;;;2.90;1.13;;;-2.10;99.90;;;;;;5069561;28;20041;-81
2023/03/11 05:56:48;;;;;;;4.43;0.80;;;-2.10;99.90;;;;;;5069121;28;20037;-81
2023/03/11 05:59:16;;;;;;;1.63;0.77;;;-2.10;99.90;;;;;;5068856;28;20049;-81
2023/03/11 06:01:43;;;;;;;8.25;1.10;;;-1.40;99.90;;;;;;5102100;28;20424;-81
2023/03/11 06:04:10;;;;;;;2.05;0.85;;;-2.20;99.90;;;;;;5085318;28;20041;-81
2023/03/11 06:06:39;;;;;;;3.50;0.80;;;-2.20;99.90;;;;;;5085371;28;20478;-81
2023/03/11 06:09:10;;;;;;;3.55;1.00;;;-2.20;99.90;;;;;;5085435;28;20537;-81
2023/03/11 06:11:37;;;;;;;1.83;1.00;;;-1.60;99.90;;;;;;5101595;28;20044;-81
2023/03/11 06:14:04;;;;;;;1.35;0.90;;;-2.20;99.90;;;;;;5085177;28;20045;-81
2023/03/11 06:16:30;;;;;;;1.60;1.00;;;-2.20;99.90;;;;;;5085289;28;20044;-81
2023/03/11 06:18:59;;;;;;;1.83;0.70;;;-1.60;99.90;;;;;;5085174;28;20069;-81
2023/03/11 06:21:26;;;;;;;4.15;0.90;;;-2.20;99.90;;;;;;5068656;28;20515;-81
2023/03/11 06:23:53;;;;;;;1.40;0.80;;;-1.80;99.90;;;;;;5086313;28;20127;-81
2023/03/11 06:26:21;;;;;;;3.63;1.00;;;-2.00;99.90;;;;;;5089770;28;20679;-81
2023/03/11 06:28:49;;;;;;;2.08;0.95;;;-2.00;99.90;;;;;;5089444;28;20044;-81
2023/03/11 06:31:19;;;;;;;7.75;1.10;;;-2.20;99.90;;;;;;5123102;28;20076;-81
2023/03/11 06:33:47;;;;;;;1.88;0.75;;;-2.20;99.90;;;;;;5106424;28;20033;-81
2023/03/11 06:36:16;;;;;;;1.77;0.98;;;-1.70;99.90;;;;;;5106098;28;20072;-81
2023/03/11 06:38:42;;;;;;;3.67;0.80;;;-2.20;99.90;;;;;;5106059;28;20064;-81
2023/03/11 06:41:09;;;;;;;1.92;0.82;;;-2.20;99.90;;;;;;5089864;28;20041;-81
2023/03/11 06:43:36;;;;;;;3.10;0.68;;;-2.20;99.90;;;;;;5105950;28;20059;-81
2023/03/11 06:46:11;;;;;;;1.00;0.82;;;-2.10;99.90;;;;;;5072001;28;20489;-81
2023/03/11 06:48:38;;;;;;;2.03;1.00;;;-2.10;99.90;;;;;;5071775;28;20044;-81
2023/03/11 06:51:05;;;;;;;3.00;1.35;;;-1.90;99.90;;;;;;5088637;28;20287;-81
2023/03/11 06:53:32;;;;;;;3.42;0.80;;;-2.10;99.90;;;;;;5089042;28;20040;-81
2023/03/11 06:55:59;;;;;;;10.63;1.20;;;-2.10;99.90;;;;;;5088839;28;20055;-81
2023/03/11 06:58:27;;;;;;;2.45;0.80;;;-2.00;99.90;;;;;;5105645;28;20049;-80
2023/03/11 07:00:53;;;;;;;1.85;0.90;;;-2.00;99.90;;;;;;5105540;28;20041;-81
2023/03/11 07:03:20;;;;;;;6.40;0.82;;;-2.00;99.90;;;;;;5089081;28;20174;-81
2023/03/11 07:05:49;;;;;;;1.20;0.77;;;-2.00;99.90;;;;;;5088430;28;20076;-81
2023/03/11 07:08:17;;;;;;;2.70;0.80;;;-1.90;99.90;;;;;;5071894;28;20131;-81
2023/03/11 07:10:44;;;;;;;3.80;1.17;;;-1.90;99.90;;;;;;5105429;28;20041;-81
2023/03/11 07:13:11;;;;;;;3.85;1.13;;;-1.90;99.90;;;;;;5089180;28;20115;-81
2023/03/11 07:15:37;;;;;;;1.00;0.60;;;-1.90;99.90;;;;;;5088997;28;20037;-81
2023/03/11 07:18:04;;;;;;;1.80;1.08;;;-1.80;99.90;;;;;;5088306;28;20405;-81
2023/03/11 07:20:31;;;;;;;2.05;0.75;;;-1.70;99.90;;;;;;5082305;28;20056;-81
2023/03/11 07:23:01;;;;;;;2.08;1.00;;;-1.70;99.90;;;;;;5097589;28;20559;-81
2023/03/11 07:25:27;;;;;;;10.73;1.38;;;-1.70;99.90;;;;;;5071935;28;20041;-81
2023/03/11 07:27:54;;;;;;;7.82;1.25;;;-0.80;99.90;;;;;;5071602;28;20037;-81
2023/03/11 07:30:21;;;;;;;4.28;1.05;;;-1.60;99.90;;;;;;5038897;28;20059;-81
2023/03/11 07:32:48;;;;;;;4.80;0.95;;;-1.60;99.90;;;;;;5071833;28;20096;-81
2023/03/11 07:35:15;;;;;;;3.10;1.15;;;-1.50;99.90;;;;;;5055375;28;20064;-81
2023/03/11 07:37:41;;;;;;;1.95;0.90;;;-1.50;99.90;;;;;;5038624;28;20113;-81
2023/03/11 07:40:12;;;;;;;2.30;1.20;;;-1.40;99.90;;;;;;5088054;28;20128;-81
2023/03/11 07:42:39;;;;;;;1.92;1.10;;;-1.40;99.90;;;;;;5054063;28;20048;-81
2023/03/11 07:45:06;;;;;;;7.47;1.10;;;-1.30;99.90;;;;;;5054721;28;20041;-81
2023/03/11 07:47:33;;;;;;;2.17;1.00;;;-1.30;99.90;;;;;;5071422;28;20040;-81
2023/03/11 07:50:00;;;;;;;2.63;1.02;;;-1.20;99.90;;;;;;5046860;28;20033;-81
2023/03/11 07:52:30;;;;;;;8.88;1.40;;;-1.20;99.90;;;;;;5054522;28;20033;-81
2023/03/11 07:54:57;;;;;;;4.75;1.48;;;-1.10;99.90;;;;;;5067464;28;20045;-81
2023/03/11 07:57:23;;;;;;;1.45;0.80;;;-1.00;99.90;;;;;;5071202;28;20508;-81
2023/03/11 07:59:50;;;;;;;10.27;2.65;;;-0.90;99.90;;;;;;5055401;28;20489;-81
2023/03/11 08:02:17;;;;;;;3.53;1.55;;;-0.40;99.90;;;;;;5038142;28;20049;-81
2023/03/11 08:04:43;;;;;;;4.88;1.30;;;-0.80;99.90;;;;;;5054654;28;20519;-81
2023/03/11 08:07:10;;;;;;;2.45;1.00;;;-0.80;99.90;;;;;;5037055;28;20047;-82
2023/03/11 08:09:37;;;;;;;2.33;0.60;;;-0.70;99.90;;;;;;5070720;28;20036;-82
2023/03/11 08:12:04;;;;;;;6.35;0.95;;;-0.60;99.90;;;;;;5054642;28;20082;-82
2023/03/11 08:14:30;;;;;;;4.00;1.23;;;-0.60;99.90;;;;;;5104337;28;20076;-82
2023/03/11 08:16:57;;;;;;;5.45;1.17;;;0.20;99.90;;;;;;5086932;28;20052;-82
2023/03/11 08:19:24;;;;;;;4.88;1.27;;;-0.40;99.90;;;;;;5086864;28;20041;-81
2023/03/11 08:21:50;;;;;;;2.70;0.77;;;-0.30;99.90;;;;;;5053971;28;20060;-81
2023/03/11 08:24:17;;;;;;;4.85;1.10;;;0.30;99.90;;;;;;5053397;28;20481;-82
2023/03/11 08:26:44;;;;;;;9.10;1.33;;;0.20;99.90;;;;;;5070438;28;20409;-81
2023/03/11 08:29:11;;;;;;;2.50;0.88;;;0.20;99.90;;;;;;5037360;28;20044;-81
2023/03/11 08:31:37;;;;;;;3.65;1.25;;;-0.10;99.90;;;;;;5054222;28;20486;-82
2023/03/11 08:34:07;;;;;;;3.45;1.10;;;0.00;99.90;;;;;;5087130;28;20064;-82
2023/03/11 08:36:34;;;;;;;3.88;1.30;;;0.10;99.90;;;;;;5103935;28;20055;-82
2023/03/11 08:39:01;;;;;;;5.82;1.17;;;0.10;99.90;;;;;;5095495;28;20033;-82
2023/03/11 08:41:28;;;;;;;1.85;0.82;;;0.20;99.90;;;;;;5053850;28;20119;-83
2023/03/11 08:43:54;;;;;;;3.00;1.10;;;1.00;99.90;;;;;;5102972;28;20037;-82
2023/03/11 08:46:32;;;;;;;6.82;1.25;;;0.30;99.90;;;;;;5053083;28;20504;-82
2023/03/11 08:48:59;;;;;;;2.67;0.90;;;0.40;99.90;;;;;;5069220;28;20044;-82
2023/03/11 08:51:31;;;;;;;3.72;1.30;;;0.50;99.90;;;;;;5054632;28;20468;-82
2023/03/11 08:53:59;;;;;;;4.95;1.00;;;0.50;99.90;;;;;;5069725;28;20565;-82
2023/03/11 08:56:26;;;;;;;1.58;0.80;;;0.50;99.90;;;;;;5070227;28;20378;-82
2023/03/11 08:58:52;;;;;;;4.40;1.02;;;0.60;99.90;;;;;;5103663;28;20082;-83
2023/03/11 09:01:19;;;;;;;3.78;1.08;;;1.60;99.90;;;;;;5070297;28;20036;-83
2023/03/11 09:03:46;;;;;;;1.15;0.77;;;0.70;99.90;;;;;;5084098;28;20037;-82
2023/03/11 09:06:15;;;;;;;1.55;0.80;;;1.70;99.90;;;;;;5085089;28;20038;-85
2023/03/11 09:08:43;;;;;;;3.45;0.88;;;1.30;99.90;;;;;;5053658;28;20522;-82
2023/03/11 09:11:12;;;;;;;1.23;0.68;;;0.90;99.90;;;;;;5086073;28;20033;-81
2023/03/11 09:13:42;;;;;;;0.90;0.60;;;0.90;99.90;;;;;;5086529;28;20048;-82
2023/03/11 09:16:15;;;;;;;2.15;0.77;;;1.70;99.90;;;;;;5070572;28;20624;-81
2023/03/11 09:18:42;;;;;;;2.00;1.25;;;1.40;99.90;;;;;;5070352;28;20044;-81
2023/03/11 09:21:10;;;;;;;8.48;0.98;;;2.30;99.90;;;;;;5053330;28;20053;-82
2023/03/11 09:23:37;;;;;;;2.05;0.75;;;1.60;99.90;;;;;;5069866;28;20076;-81
2023/03/11 09:26:03;;;;;;;5.28;1.10;;;2.40;99.90;;;;;;5053155;28;20076;-82
2023/03/11 09:28:30;;;;;;;4.28;0.90;;;2.20;99.90;;;;;;5069886;28;20091;-81
2023/03/11 09:30:57;;;;;;;2.10;0.98;;;1.50;99.90;;;;;;5053485;28;20040;-82
2023/03/11 09:33:24;;;;;;;3.40;1.00;;;1.60;99.90;;;;;;5069803;28;20037;-82
2023/03/11 09:35:50;;;;;;;2.63;0.90;;;1.60;99.90;;;;;;5053177;28;20041;-81
2023/03/11 09:38:17;;;;;;;3.33;1.05;;;1.70;99.90;;;;;;5053108;28;20040;-82
2023/03/11 09:40:47;;;;;;;3.50;1.23;;;1.80;99.90;;;;;;5069739;28;20047;-82
2023/03/11 09:43:35;;;;;;;1.23;0.80;;;1.80;99.90;;;;;;5086044;28;20516;-82
2023/03/11 09:46:35;;;;;;;2.75;0.77;;;1.90;99.90;;;;;;5069038;28;20033;-81
2023/03/11 09:49:17;;;;;;;2.78;1.17;;;2.00;99.90;;;;;;5102176;28;20072;-83
2023/03/11 09:51:59;;;;;;;2.03;1.15;;;2.00;99.90;;;;;;5103034;28;20041;-82
2023/03/11 09:54:32;;;;;;;3.70;1.20;;;2.10;99.90;;;;;;5069311;28;20107;-82
2023/03/11 09:57:01;;;;;;;1.02;0.70;;;2.60;99.90;;;;;;5069260;28;20049;-82
2023/03/11 09:59:33;;;;;;;3.08;0.70;;;2.30;99.90;;;;;;5085138;28;20087;-82
2023/03/11 10:02:02;;;;;;;3.03;0.93;;;2.30;99.90;;;;;;5066264;28;20047;-82
2023/03/11 10:04:48;;;;;;;3.30;1.10;;;2.50;99.90;;;;;;5065533;28;20772;-82
2023/03/11 10:07:20;;;;;;;5.85;1.08;;;2.50;99.90;;;;;;5098871;28;20095;-82
2023/03/11 10:09:55;;;;;;;2.70;1.08;;;2.70;99.90;;;;;;5049561;28;20080;-82
2023/03/11 10:12:58;;;;;;;1.60;0.70;;;2.70;99.90;;;;;;5049075;28;20040;-82
2023/03/11 10:15:24;;;;;;;3.67;1.13;;;2.80;99.90;;;;;;5068951;28;20056;-82
2023/03/11 10:18:12;;;;;;;4.85;0.95;;;3.00;99.90;;;;;;5069068;28;20045;-82
2023/03/11 10:20:52;;;;;;;2.28;0.85;;;3.00;99.90;;;;;;5069455;28;20055;-82
2023/03/11 10:23:43;;;;;;;4.03;0.77;;;3.00;99.90;;;;;;5085759;28;20620;-82
2023/03/11 10:26:16;;;;;;;3.47;1.00;;;3.00;99.90;;;;;;5068985;28;20045;-82
2023/03/11 10:28:50;;;;;;;3.08;0.88;;;3.00;99.90;;;;;;5069033;28;20077;-81
2023/03/11 10:31:19;;;;;;;1.58;0.80;;;3.10;99.90;;;;;;5068973;28;20094;-81
2023/03/11 10:33:56;;;;;;;1.52;0.80;;;3.10;99.90;;;;;;5068797;28;20045;-81
2023/03/11 10:36:30;;;;;;;3.08;0.85;;;3.10;99.90;;;;;;5068729;28;20082;-81
2023/03/11 10:38:57;;;;;;;1.88;0.90;;;3.10;99.90;;;;;;5069150;28;20113;-80
2023/03/11 10:41:45;;;;;;;4.47;0.70;;;3.10;99.90;;;;;;5069054;28;20120;-81
2023/03/11 10:44:22;;;;;;;1.83;1.10;;;3.20;99.90;;;;;;5068653;28;20083;-81
2023/03/11 10:46:49;;;;;;;1.33;0.80;;;3.20;99.90;;;;;;5069330;28;20045;-81
2023/03/11 10:49:17;;;;;;;1.60;0.73;;;3.70;99.90;;;;;;5052319;28;20077;-81
2023/03/11 10:51:50;;;;;;;4.28;0.88;;;3.40;99.90;;;;;;5069205;28;20133;-81
2023/03/11 10:54:30;;;;;;;4.22;0.90;;;3.40;99.90;;;;;;5069041;28;20087;-81
2023/03/11 10:56:59;;;;;;;2.88;1.10;;;3.50;99.90;;;;;;5068811;28;20083;-81
2023/03/11 10:59:28;;;;;;;4.03;0.85;;;3.50;99.90;;;;;;5068836;28;20076;-81
2023/03/11 11:02:20;;;;;;;5.80;1.02;;;3.60;99.90;;;;;;5068814;28;20049;-81
2023/03/11 11:04:48;;;;;;;1.88;0.88;;;3.60;99.90;;;;;;5068767;28;20517;-80
2023/03/11 11:07:35;;;;;;;1.73;0.85;;;3.70;99.90;;;;;;5085517;28;20037;-81
2023/03/11 11:10:11;;;;;;;1.92;0.93;;;4.00;99.90;;;;;;5069716;28;20037;-81
2023/03/11 11:12:53;;;;;;;;;;;3.80;99.90;;;;;;5106058;28;20107;-81
2023/03/11 11:15:32;;;;;;;7.65;0.88;;;3.90;99.90;;;;;;5105598;28;19920;-81
2023/03/11 11:18:02;;;;;;;1.55;0.77;;;3.80;99.90;;;;;;5089564;28;20092;-81
2023/03/11 11:20:30;;;;;;;1.45;0.70;;;4.00;99.90;;;;;;5072084;28;20504;-81
2023/03/11 11:23:00;;;;;;;3.75;1.00;;;4.00;99.90;;;;;;5088804;28;20460;-81
2023/03/11 11:25:34;;;;;;;7.20;1.17;;;4.40;99.90;;;;;;5088594;28;20528;-80
2023/03/11 11:28:14;;;;;;;3.60;0.75;;;3.90;99.90;;;;;;5105845;28;20048;-81
2023/03/11 11:31:02;;;;;;;3.40;1.45;;;4.00;99.90;;;;;;5072267;28;20472;-81
2023/03/11 11:33:47;;;;;;;3.75;1.17;;;4.10;99.90;;;;;;5071863;28;20413;-80
2023/03/11 11:36:15;;;;;;;1.88;0.93;;;4.20;99.90;;;;;;5071803;28;20107;-81
2023/03/11 11:38:42;;;;;;;2.42;0.70;;;4.50;99.90;;;;;;5072077;28;20044;-81
2023/03/11 11:41:17;;;;;;;1.83;0.70;;;4.20;99.90;;;;;;5072130;28;20036;-81
2023/03/11 11:43:51;;;;;;;4.13;0.80;;;4.30;99.90;;;;;;5088466;28;20123;-81
2023/03/11 11:46:57;;;;;;;1.73;0.70;;;4.40;99.90;;;;;;5071244;28;20091;-81
2023/03/11 11:49:30;;;;;;;2.40;0.87;;;4.30;99.90;;;;;;5114168;28;20055;-81
2023/03/11 11:52:12;;;;;;;11.18;1.20;;;4.60;99.90;;;;;;5093571;28;20052;-81
2023/03/11 11:55:05;;;;;;;1.60;0.70;;;4.40;99.90;;;;;;5104484;28;20078;-81
2023/03/11 11:57:32;;;;;;;5.22;0.82;;;4.40;99.90;;;;;;5071743;28;20078;-80
2023/03/11 12:00:03;;;;;;;3.88;0.98;;;4.50;99.90;;;;;;5088473;28;20083;-81
2023/03/11 12:02:54;;;;;;;1.58;0.70;;;4.50;99.90;;;;;;5071338;28;20829;-81
2023/03/11 12:05:28;;;;;;;2.80;1.15;;;4.50;99.90;;;;;;5104539;28;20132;-81
2023/03/11 12:08:17;;;;;;;4.68;0.90;;;4.50;99.90;;;;;;5071218;28;20077;-81
2023/03/11 12:10:59;;;;;;;2.75;0.70;;;4.50;99.90;;;;;;5071153;28;20033;-81
2023/03/11 12:13:34;;;;;;;2.33;0.90;;;4.50;99.90;;;;;;5071025;28;20103;-81
2023/03/11 12:16:35;;;;;;;3.50;1.02;;;4.50;99.90;;;;;;5104640;28;20501;-81
2023/03/11 12:19:09;;;;;;;0.77;0.47;;;4.60;99.90;;;;;;5077818;28;20421;-81
2023/03/11 12:21:42;;;;;;;3.03;1.05;;;4.50;99.90;;;;;;5103634;28;20057;-81
2023/03/11 12:24:30;;;;;;;3.42;0.95;;;4.60;99.90;;;;;;5104433;28;20139;-81
2023/03/11 12:27:04;;;;;;;3.38;0.90;;;4.50;99.90;;;;;;5070970;28;20122;-81
2023/03/11 12:29:35;;;;;;;3.20;0.70;;;4.90;99.90;;;;;;5070810;28;20060;-81
2023/03/11 12:32:02;;;;;;;2.53;0.80;;;4.60;99.90;;;;;;5070891;28;20073;-81
2023/03/11 12:34:34;;;;;;;6.35;0.93;;;4.50;99.90;;;;;;5103921;28;20457;-81
2023/03/11 12:37:11;;;;;;;1.40;0.60;;;4.60;99.90;;;;;;5087678;28;20037;-81
2023/03/11 12:39:38;;;;;;;3.50;0.70;;;4.60;99.90;;;;;;5102498;28;20501;-81
2023/03/11 12:42:14;;;;;;;5.18;1.13;;;5.20;99.90;;;;;;5086950;28;20052;-81
2023/03/11 12:44:41;;;;;;;5.85;1.00;;;4.60;99.90;;;;;;5103933;28;20114;-81
2023/03/11 12:47:10;;;;;;;2.42;1.02;;;4.70;99.90;;;;;;5087405;28;20081;-82
2023/03/11 12:49:39;;;;;;;1.50;0.77;;;4.70;99.90;;;;;;5103342;28;20493;-81
2023/03/11 12:52:12;;;;;;;4.00;1.05;;;4.80;99.90;;;;;;5103494;28;20052;-80
2023/03/11 12:54:41;;;;;;;8.15;0.65;;;4.80;99.90;;;;;;5086713;28;20055;-80
2023/03/11 12:57:17;;;;;;;5.28;1.50;;;4.80;99.90;;;;;;5103565;28;20045;-80
2023/03/11 13:00:10;;;;;;;;;;;4.80;99.90;;;;;;5104033;28;20076;-80
2023/03/11 13:03:28;;;;;;;5.00;0.80;;;4.70;99.90;;;;;;5082156;28;19977;-81
2023/03/11 13:06:33;;;;;;;5.22;1.00;;;4.60;99.90;;;;;;5080479;28;20471;-80
2023/03/11 13:09:00;;;;;;;4.13;1.15;;;4.60;99.90;;;;;;5071353;28;20048;-80